Terminal Aerodrome Forecast
Issued by NWS

Home | Current Version | Previous Version | Text Only | Print | Product List | Glossary On
Versions: 1 2 3 4 5 6 7 8 9 10 11 12
455
FTUS44 KLZK 252320
TAFLIT
TAF
KLIT 252320Z 2600/2624 17012KT P6SM SCT040 BKN100
      TEMPO 2610/2614 BKN010
     FM261500 19012G18KT P6SM VCSH BKN025 OVC040
      TEMPO 2616/2620 5SM -SHRA BR OVC015
     FM262000 24015G25KT 5SM -RA SCT007 OVC015
      TEMPO 2620/2624 VRB25G40KT 1SM TSRA OVC007CB=

USA.gov is the U.S. government's official web portal to all federal, state and local government web resources and services.